sensor_id;sensor_type;location;lat;lon;timestamp;P1;durP1;ratioP1;P2;durP2;ratioP2
35907;SDS011;22003;50.320;8.054;2023-12-04T00:02:15;28.83;;;15.68;;
35907;SDS011;22003;50.320;8.054;2023-12-04T00:04:41;34.35;;;15.45;;
35907;SDS011;22003;50.320;8.054;2023-12-04T00:07:06;28.45;;;16.15;;
35907;SDS011;22003;50.320;8.054;2023-12-04T00:09:31;30.30;;;15.48;;
35907;SDS011;22003;50.320;8.054;2023-12-04T00:11:56;30.33;;;15.95;;
35907;SDS011;22003;50.320;8.054;2023-12-04T00:14:22;33.30;;;16.92;;
35907;SDS011;22003;50.320;8.054;2023-12-04T00:16:47;32.20;;;15.30;;
35907;SDS011;22003;50.320;8.054;2023-12-04T00:19:12;33.33;;;15.25;;
35907;SDS011;22003;50.320;8.054;2023-12-04T00:21:37;31.13;;;15.30;;
35907;SDS011;22003;50.320;8.054;2023-12-04T00:24:03;29.30;;;15.45;;
35907;SDS011;22003;50.320;8.054;2023-12-04T00:26:29;31.77;;;14.82;;
35907;SDS011;22003;50.320;8.054;2023-12-04T00:28:54;32.40;;;15.00;;
35907;SDS011;22003;50.320;8.054;2023-12-04T00:31:19;30.25;;;15.15;;
35907;SDS011;22003;50.320;8.054;2023-12-04T00:33:45;31.90;;;15.00;;
35907;SDS011;22003;50.320;8.054;2023-12-04T00:36:11;33.90;;;14.32;;
35907;SDS011;22003;50.320;8.054;2023-12-04T00:38:36;33.60;;;15.60;;
35907;SDS011;22003;50.320;8.054;2023-12-04T00:41:01;30.52;;;15.07;;
35907;SDS011;22003;50.320;8.054;2023-12-04T00:43:26;34.38;;;15.63;;
35907;SDS011;22003;50.320;8.054;2023-12-04T00:45:52;30.70;;;15.07;;
35907;SDS011;22003;50.320;8.054;2023-12-04T00:48:17;30.27;;;16.50;;
35907;SDS011;22003;50.320;8.054;2023-12-04T00:50:42;34.38;;;15.90;;
35907;SDS011;22003;50.320;8.054;2023-12-04T00:53:08;30.98;;;14.82;;
35907;SDS011;22003;50.320;8.054;2023-12-04T00:55:33;30.67;;;15.80;;
35907;SDS011;22003;50.320;8.054;2023-12-04T00:57:58;32.83;;;16.45;;
35907;SDS011;22003;50.320;8.054;2023-12-04T01:00:23;34.95;;;15.60;;
35907;SDS011;22003;50.320;8.054;2023-12-04T01:02:49;31.38;;;15.15;;
35907;SDS011;22003;50.320;8.054;2023-12-04T01:05:14;31.95;;;15.75;;
35907;SDS011;22003;50.320;8.054;2023-12-04T01:07:39;32.60;;;15.27;;
35907;SDS011;22003;50.320;8.054;2023-12-04T01:10:04;33.17;;;16.58;;
35907;SDS011;22003;50.320;8.054;2023-12-04T01:12:30;30.08;;;16.02;;
35907;SDS011;22003;50.320;8.054;2023-12-04T01:14:55;32.83;;;17.00;;
35907;SDS011;22003;50.320;8.054;2023-12-04T01:17:21;32.55;;;16.95;;
35907;SDS011;22003;50.320;8.054;2023-12-04T01:19:46;34.20;;;16.65;;
35907;SDS011;22003;50.320;8.054;2023-12-04T01:22:11;32.72;;;15.32;;
35907;SDS011;22003;50.320;8.054;2023-12-04T01:24:36;30.63;;;15.48;;
35907;SDS011;22003;50.320;8.054;2023-12-04T01:27:02;33.75;;;15.93;;
35907;SDS011;22003;50.320;8.054;2023-12-04T01:29:27;35.63;;;16.90;;
35907;SDS011;22003;50.320;8.054;2023-12-04T01:31:53;32.10;;;16.35;;
35907;SDS011;22003;50.320;8.054;2023-12-04T01:34:18;33.83;;;17.65;;
35907;SDS011;22003;50.320;8.054;2023-12-04T01:36:43;39.47;;;18.92;;
35907;SDS011;22003;50.320;8.054;2023-12-04T01:39:08;37.92;;;17.63;;
35907;SDS011;22003;50.320;8.054;2023-12-04T01:41:34;33.88;;;17.08;;
35907;SDS011;22003;50.320;8.054;2023-12-04T01:43:59;39.05;;;17.77;;
35907;SDS011;22003;50.320;8.054;2023-12-04T01:46:24;36.17;;;17.73;;
35907;SDS011;22003;50.320;8.054;2023-12-04T01:48:50;36.85;;;16.27;;
35907;SDS011;22003;50.320;8.054;2023-12-04T01:51:16;29.67;;;16.20;;
35907;SDS011;22003;50.320;8.054;2023-12-04T01:53:42;35.47;;;17.33;;
35907;SDS011;22003;50.320;8.054;2023-12-04T01:56:08;28.98;;;15.77;;
35907;SDS011;22003;50.320;8.054;2023-12-04T01:58:34;33.75;;;16.65;;
35907;SDS011;22003;50.320;8.054;2023-12-04T02:00:59;30.92;;;16.63;;
35907;SDS011;22003;50.320;8.054;2023-12-04T02:03:25;26.58;;;14.48;;
35907;SDS011;22003;50.320;8.054;2023-12-04T02:05:51;36.17;;;16.85;;
35907;SDS011;22003;50.320;8.054;2023-12-04T02:08:17;27.25;;;12.45;;
35907;SDS011;22003;50.320;8.054;2023-12-04T02:10:43;34.60;;;18.13;;
35907;SDS011;22003;50.320;8.054;2023-12-04T02:13:08;32.35;;;16.13;;
35907;SDS011;22003;50.320;8.054;2023-12-04T02:15:34;35.33;;;17.63;;
35907;SDS011;22003;50.320;8.054;2023-12-04T02:17:59;32.55;;;16.80;;
35907;SDS011;22003;50.320;8.054;2023-12-04T02:20:34;37.10;;;17.67;;
35907;SDS011;22003;50.320;8.054;2023-12-04T02:23:00;37.25;;;16.60;;
35907;SDS011;22003;50.320;8.054;2023-12-04T02:25:27;30.27;;;15.65;;
35907;SDS011;22003;50.320;8.054;2023-12-04T02:27:52;39.58;;;17.60;;
35907;SDS011;22003;50.320;8.054;2023-12-04T02:30:19;31.40;;;15.25;;
35907;SDS011;22003;50.320;8.054;2023-12-04T02:32:47;37.08;;;18.02;;
35907;SDS011;22003;50.320;8.054;2023-12-04T02:35:14;39.72;;;19.02;;
35907;SDS011;22003;50.320;8.054;2023-12-04T02:37:41;42.25;;;18.80;;
35907;SDS011;22003;50.320;8.054;2023-12-04T02:40:07;34.67;;;18.27;;
35907;SDS011;22003;50.320;8.054;2023-12-04T02:42:33;40.85;;;19.40;;
35907;SDS011;22003;50.320;8.054;2023-12-04T02:44:58;39.03;;;19.23;;
35907;SDS011;22003;50.320;8.054;2023-12-04T02:47:24;40.53;;;18.38;;
35907;SDS011;22003;50.320;8.054;2023-12-04T02:49:49;34.88;;;17.00;;
35907;SDS011;22003;50.320;8.054;2023-12-04T02:52:14;33.53;;;16.83;;
35907;SDS011;22003;50.320;8.054;2023-12-04T02:54:40;35.58;;;17.27;;
35907;SDS011;22003;50.320;8.054;2023-12-04T02:57:05;33.33;;;17.05;;
35907;SDS011;22003;50.320;8.054;2023-12-04T02:59:30;36.08;;;18.27;;
35907;SDS011;22003;50.320;8.054;2023-12-04T03:01:55;37.65;;;17.77;;
35907;SDS011;22003;50.320;8.054;2023-12-04T03:04:21;36.83;;;16.85;;
35907;SDS011;22003;50.320;8.054;2023-12-04T03:06:46;39.30;;;18.75;;
35907;SDS011;22003;50.320;8.054;2023-12-04T03:09:11;37.47;;;17.60;;
35907;SDS011;22003;50.320;8.054;2023-12-04T03:11:40;40.20;;;18.30;;
35907;SDS011;22003;50.320;8.054;2023-12-04T03:14:05;38.47;;;17.17;;
35907;SDS011;22003;50.320;8.054;2023-12-04T03:16:31;35.45;;;18.13;;
35907;SDS011;22003;50.320;8.054;2023-12-04T03:18:57;34.83;;;16.77;;
35907;SDS011;22003;50.320;8.054;2023-12-04T03:21:22;38.20;;;18.42;;
35907;SDS011;22003;50.320;8.054;2023-12-04T03:23:48;35.17;;;16.55;;
35907;SDS011;22003;50.320;8.054;2023-12-04T03:26:13;40.30;;;19.33;;
35907;SDS011;22003;50.320;8.054;2023-12-04T03:28:38;37.08;;;18.02;;
35907;SDS011;22003;50.320;8.054;2023-12-04T03:31:05;37.97;;;18.33;;
35907;SDS011;22003;50.320;8.054;2023-12-04T03:33:30;32.70;;;17.27;;
35907;SDS011;22003;50.320;8.054;2023-12-04T03:35:56;35.50;;;16.92;;
35907;SDS011;22003;50.320;8.054;2023-12-04T03:38:21;34.97;;;17.38;;
35907;SDS011;22003;50.320;8.054;2023-12-04T03:40:46;32.90;;;15.80;;
35907;SDS011;22003;50.320;8.054;2023-12-04T03:43:11;34.28;;;16.10;;
35907;SDS011;22003;50.320;8.054;2023-12-04T03:45:36;29.45;;;16.15;;
35907;SDS011;22003;50.320;8.054;2023-12-04T03:48:02;31.05;;;16.15;;
35907;SDS011;22003;50.320;8.054;2023-12-04T03:50:27;36.50;;;17.95;;
35907;SDS011;22003;50.320;8.054;2023-12-04T03:52:52;33.17;;;16.30;;
35907;SDS011;22003;50.320;8.054;2023-12-04T03:55:18;33.95;;;16.60;;
35907;SDS011;22003;50.320;8.054;2023-12-04T03:57:44;36.83;;;16.85;;
35907;SDS011;22003;50.320;8.054;2023-12-04T04:00:10;33.47;;;16.15;;
35907;SDS011;22003;50.320;8.054;2023-12-04T04:02:35;33.38;;;16.13;;
35907;SDS011;22003;50.320;8.054;2023-12-04T04:05:01;35.13;;;16.75;;
35907;SDS011;22003;50.320;8.054;2023-12-04T04:07:26;37.25;;;17.02;;
35907;SDS011;22003;50.320;8.054;2023-12-04T04:09:51;35.20;;;16.67;;
35907;SDS011;22003;50.320;8.054;2023-12-04T04:12:17;37.30;;;17.17;;
35907;SDS011;22003;50.320;8.054;2023-12-04T04:14:42;40.03;;;17.65;;
35907;SDS011;22003;50.320;8.054;2023-12-04T04:17:07;37.70;;;19.05;;
35907;SDS011;22003;50.320;8.054;2023-12-04T04:19:32;38.10;;;17.67;;
35907;SDS011;22003;50.320;8.054;2023-12-04T04:21:58;35.92;;;17.15;;
35907;SDS011;22003;50.320;8.054;2023-12-04T04:24:23;37.70;;;18.42;;
35907;SDS011;22003;50.320;8.054;2023-12-04T04:26:48;40.08;;;19.08;;
35907;SDS011;22003;50.320;8.054;2023-12-04T04:29:13;36.67;;;18.80;;
35907;SDS011;22003;50.320;8.054;2023-12-04T04:31:39;34.20;;;16.88;;
35907;SDS011;22003;50.320;8.054;2023-12-04T04:34:04;37.22;;;18.55;;
35907;SDS011;22003;50.320;8.054;2023-12-04T04:36:29;39.90;;;17.52;;
35907;SDS011;22003;50.320;8.054;2023-12-04T04:38:55;34.40;;;17.80;;
35907;SDS011;22003;50.320;8.054;2023-12-04T04:41:20;33.45;;;15.77;;
35907;SDS011;22003;50.320;8.054;2023-12-04T04:43:45;35.25;;;16.55;;
35907;SDS011;22003;50.320;8.054;2023-12-04T04:46:10;35.53;;;16.67;;
35907;SDS011;22003;50.320;8.054;2023-12-04T04:48:36;38.75;;;18.45;;
35907;SDS011;22003;50.320;8.054;2023-12-04T04:51:01;37.15;;;17.98;;
35907;SDS011;22003;50.320;8.054;2023-12-04T04:53:26;28.35;;;15.05;;
35907;SDS011;22003;50.320;8.054;2023-12-04T04:55:52;32.60;;;16.65;;
35907;SDS011;22003;50.320;8.054;2023-12-04T04:58:17;29.65;;;15.32;;
35907;SDS011;22003;50.320;8.054;2023-12-04T05:00:43;36.75;;;17.52;;
35907;SDS011;22003;50.320;8.054;2023-12-04T05:03:09;36.38;;;16.00;;
35907;SDS011;22003;50.320;8.054;2023-12-04T05:05:34;35.97;;;16.60;;
35907;SDS011;22003;50.320;8.054;2023-12-04T05:07:59;30.40;;;15.95;;
35907;SDS011;22003;50.320;8.054;2023-12-04T05:10:24;32.92;;;15.90;;
35907;SDS011;22003;50.320;8.054;2023-12-04T05:12:50;32.88;;;15.55;;
35907;SDS011;22003;50.320;8.054;2023-12-04T05:15:15;32.83;;;16.15;;
35907;SDS011;22003;50.320;8.054;2023-12-04T05:17:40;29.52;;;14.80;;
35907;SDS011;22003;50.320;8.054;2023-12-04T05:20:05;30.92;;;14.27;;
35907;SDS011;22003;50.320;8.054;2023-12-04T05:22:32;41.58;;;18.42;;
35907;SDS011;22003;50.320;8.054;2023-12-04T05:24:58;35.55;;;16.90;;
35907;SDS011;22003;50.320;8.054;2023-12-04T05:27:23;34.78;;;16.48;;
35907;SDS011;22003;50.320;8.054;2023-12-04T05:29:48;43.58;;;18.27;;
35907;SDS011;22003;50.320;8.054;2023-12-04T05:32:13;34.67;;;16.80;;
35907;SDS011;22003;50.320;8.054;2023-12-04T05:34:39;33.03;;;16.10;;
35907;SDS011;22003;50.320;8.054;2023-12-04T05:37:04;40.72;;;16.80;;
35907;SDS011;22003;50.320;8.054;2023-12-04T05:39:29;35.15;;;16.83;;
35907;SDS011;22003;50.320;8.054;2023-12-04T05:41:54;32.33;;;15.25;;
35907;SDS011;22003;50.320;8.054;2023-12-04T05:44:20;31.67;;;16.08;;
35907;SDS011;22003;50.320;8.054;2023-12-04T05:46:45;35.83;;;16.23;;
35907;SDS011;22003;50.320;8.054;2023-12-04T05:49:10;35.33;;;16.23;;
35907;SDS011;22003;50.320;8.054;2023-12-04T05:51:35;34.63;;;15.88;;
35907;SDS011;22003;50.320;8.054;2023-12-04T05:54:01;29.40;;;15.48;;
35907;SDS011;22003;50.320;8.054;2023-12-04T05:56:26;31.55;;;16.00;;
35907;SDS011;22003;50.320;8.054;2023-12-04T05:58:51;38.22;;;16.50;;
35907;SDS011;22003;50.320;8.054;2023-12-04T06:01:16;34.05;;;16.80;;
35907;SDS011;22003;50.320;8.054;2023-12-04T06:03:42;29.60;;;14.63;;
35907;SDS011;22003;50.320;8.054;2023-12-04T06:06:07;31.38;;;15.93;;
35907;SDS011;22003;50.320;8.054;2023-12-04T06:08:32;33.45;;;15.63;;
35907;SDS011;22003;50.320;8.054;2023-12-04T06:10:58;33.90;;;15.98;;
35907;SDS011;22003;50.320;8.054;2023-12-04T06:13:23;28.80;;;14.63;;
35907;SDS011;22003;50.320;8.054;2023-12-04T06:15:48;34.92;;;15.48;;
35907;SDS011;22003;50.320;8.054;2023-12-04T06:18:14;32.35;;;14.68;;
35907;SDS011;22003;50.320;8.054;2023-12-04T06:20:39;30.80;;;14.65;;
35907;SDS011;22003;50.320;8.054;2023-12-04T06:23:04;28.98;;;14.98;;
35907;SDS011;22003;50.320;8.054;2023-12-04T06:25:30;33.30;;;15.35;;
35907;SDS011;22003;50.320;8.054;2023-12-04T06:27:55;30.55;;;14.60;;
35907;SDS011;22003;50.320;8.054;2023-12-04T06:30:21;31.48;;;15.48;;
35907;SDS011;22003;50.320;8.054;2023-12-04T06:32:47;30.38;;;14.48;;
35907;SDS011;22003;50.320;8.054;2023-12-04T06:35:12;29.65;;;14.70;;
35907;SDS011;22003;50.320;8.054;2023-12-04T06:37:38;29.33;;;14.40;;
35907;SDS011;22003;50.320;8.054;2023-12-04T06:40:05;29.77;;;14.75;;
35907;SDS011;22003;50.320;8.054;2023-12-04T06:42:33;32.20;;;15.63;;
35907;SDS011;22003;50.320;8.054;2023-12-04T06:45:02;28.25;;;14.52;;
35907;SDS011;22003;50.320;8.054;2023-12-04T06:47:27;36.47;;;16.05;;
35907;SDS011;22003;50.320;8.054;2023-12-04T06:49:56;30.65;;;15.23;;
35907;SDS011;22003;50.320;8.054;2023-12-04T06:52:21;31.13;;;15.60;;
35907;SDS011;22003;50.320;8.054;2023-12-04T06:54:47;35.05;;;14.65;;
35907;SDS011;22003;50.320;8.054;2023-12-04T06:57:12;34.13;;;15.27;;
35907;SDS011;22003;50.320;8.054;2023-12-04T06:59:39;26.20;;;11.48;;
35907;SDS011;22003;50.320;8.054;2023-12-04T07:02:07;21.52;;;8.02;;
35907;SDS011;22003;50.320;8.054;2023-12-04T07:04:33;11.48;;;5.78;;
35907;SDS011;22003;50.320;8.054;2023-12-04T07:06:58;5.35;;;2.80;;
35907;SDS011;22003;50.320;8.054;2023-12-04T07:09:29;4.53;;;2.78;;
35907;SDS011;22003;50.320;8.054;2023-12-04T07:11:54;5.50;;;2.15;;
35907;SDS011;22003;50.320;8.054;2023-12-04T07:14:20;3.50;;;2.60;;
35907;SDS011;22003;50.320;8.054;2023-12-04T07:16:45;8.70;;;3.65;;
35907;SDS011;22003;50.320;8.054;2023-12-04T07:19:10;3.65;;;2.97;;
35907;SDS011;22003;50.320;8.054;2023-12-04T07:21:36;12.02;;;3.20;;
35907;SDS011;22003;50.320;8.054;2023-12-04T07:24:02;6.35;;;2.65;;
35907;SDS011;22003;50.320;8.054;2023-12-04T07:26:27;10.05;;;3.35;;
35907;SDS011;22003;50.320;8.054;2023-12-04T07:28:53;5.57;;;2.22;;
35907;SDS011;22003;50.320;8.054;2023-12-04T07:31:18;0.65;;;0.65;;
35907;SDS011;22003;50.320;8.054;2023-12-04T07:33:44;0.65;;;0.57;;
35907;SDS011;22003;50.320;8.054;2023-12-04T07:36:09;7.53;;;1.33;;
35907;SDS011;22003;50.320;8.054;2023-12-04T07:38:35;2.17;;;0.90;;
35907;SDS011;22003;50.320;8.054;2023-12-04T07:41:00;1.95;;;1.77;;
35907;SDS011;22003;50.320;8.054;2023-12-04T07:43:25;0.77;;;0.77;;
35907;SDS011;22003;50.320;8.054;2023-12-04T07:45:52;3.47;;;2.60;;
35907;SDS011;22003;50.320;8.054;2023-12-04T07:48:17;2.28;;;2.08;;
35907;SDS011;22003;50.320;8.054;2023-12-04T07:50:42;7.22;;;2.95;;
35907;SDS011;22003;50.320;8.054;2023-12-04T07:53:08;8.40;;;3.85;;
35907;SDS011;22003;50.320;8.054;2023-12-04T07:55:34;0.75;;;0.75;;
35907;SDS011;22003;50.320;8.054;2023-12-04T07:58:00;2.40;;;1.55;;
35907;SDS011;22003;50.320;8.054;2023-12-04T08:00:25;2.65;;;1.52;;
35907;SDS011;22003;50.320;8.054;2023-12-04T08:02:51;0.40;;;0.40;;
35907;SDS011;22003;50.320;8.054;2023-12-04T08:05:16;7.28;;;4.38;;
35907;SDS011;22003;50.320;8.054;2023-12-04T08:07:42;2.00;;;1.42;;
35907;SDS011;22003;50.320;8.054;2023-12-04T08:10:07;1.17;;;1.08;;
35907;SDS011;22003;50.320;8.054;2023-12-04T08:12:33;2.70;;;1.98;;
35907;SDS011;22003;50.320;8.054;2023-12-04T08:14:59;3.10;;;1.75;;
35907;SDS011;22003;50.320;8.054;2023-12-04T08:17:24;1.13;;;1.05;;
35907;SDS011;22003;50.320;8.054;2023-12-04T08:19:50;3.85;;;3.42;;
35907;SDS011;22003;50.320;8.054;2023-12-04T08:22:15;5.85;;;3.13;;
35907;SDS011;22003;50.320;8.054;2023-12-04T08:24:40;2.03;;;1.92;;
35907;SDS011;22003;50.320;8.054;2023-12-04T08:27:06;0.88;;;0.88;;
35907;SDS011;22003;50.320;8.054;2023-12-04T08:29:32;0.77;;;0.77;;
35907;SDS011;22003;50.320;8.054;2023-12-04T08:31:58;2.05;;;1.95;;
35907;SDS011;22003;50.320;8.054;2023-12-04T08:34:23;1.35;;;0.88;;
35907;SDS011;22003;50.320;8.054;2023-12-04T08:36:48;2.90;;;0.98;;
35907;SDS011;22003;50.320;8.054;2023-12-04T08:39:14;3.03;;;2.75;;
35907;SDS011;22003;50.320;8.054;2023-12-04T08:41:39;1.02;;;0.88;;
35907;SDS011;22003;50.320;8.054;2023-12-04T08:44:04;1.10;;;1.10;;
35907;SDS011;22003;50.320;8.054;2023-12-04T08:46:29;2.20;;;1.08;;
35907;SDS011;22003;50.320;8.054;2023-12-04T08:48:55;1.00;;;0.90;;
35907;SDS011;22003;50.320;8.054;2023-12-04T08:51:20;1.98;;;1.77;;
35907;SDS011;22003;50.320;8.054;2023-12-04T08:53:45;1.85;;;1.75;;
35907;SDS011;22003;50.320;8.054;2023-12-04T08:56:11;1.17;;;0.43;;
35907;SDS011;22003;50.320;8.054;2023-12-04T08:58:36;3.30;;;2.28;;
35907;SDS011;22003;50.320;8.054;2023-12-04T09:01:02;0.55;;;0.43;;
35907;SDS011;22003;50.320;8.054;2023-12-04T09:03:28;4.80;;;2.42;;
35907;SDS011;22003;50.320;8.054;2023-12-04T09:05:54;0.85;;;0.63;;
35907;SDS011;22003;50.320;8.054;2023-12-04T09:08:21;1.20;;;1.08;;
35907;SDS011;22003;50.320;8.054;2023-12-04T09:10:47;6.00;;;2.63;;
35907;SDS011;22003;50.320;8.054;2023-12-04T09:13:13;0.77;;;0.77;;
35907;SDS011;22003;50.320;8.054;2023-12-04T09:15:39;4.55;;;1.75;;
35907;SDS011;22003;50.320;8.054;2023-12-04T09:18:05;1.23;;;1.13;;
35907;SDS011;22003;50.320;8.054;2023-12-04T09:20:30;7.53;;;2.80;;
35907;SDS011;22003;50.320;8.054;2023-12-04T09:22:55;4.75;;;2.70;;
35907;SDS011;22003;50.320;8.054;2023-12-04T09:25:20;5.53;;;1.60;;
35907;SDS011;22003;50.320;8.054;2023-12-04T09:27:46;3.38;;;3.03;;
35907;SDS011;22003;50.320;8.054;2023-12-04T09:30:11;2.13;;;2.03;;
35907;SDS011;22003;50.320;8.054;2023-12-04T09:32:37;1.45;;;1.38;;
35907;SDS011;22003;50.320;8.054;2023-12-04T09:35:02;5.30;;;1.75;;
35907;SDS011;22003;50.320;8.054;2023-12-04T09:37:27;1.70;;;1.60;;
35907;SDS011;22003;50.320;8.054;2023-12-04T09:39:53;0.45;;;0.45;;
35907;SDS011;22003;50.320;8.054;2023-12-04T09:42:18;2.47;;;1.45;;
35907;SDS011;22003;50.320;8.054;2023-12-04T09:44:44;2.05;;;1.85;;
35907;SDS011;22003;50.320;8.054;2023-12-04T09:47:12;3.10;;;2.38;;
35907;SDS011;22003;50.320;8.054;2023-12-04T09:49:38;17.25;;;2.45;;
35907;SDS011;22003;50.320;8.054;2023-12-04T09:52:04;1.20;;;1.13;;
35907;SDS011;22003;50.320;8.054;2023-12-04T09:54:30;2.92;;;2.20;;
35907;SDS011;22003;50.320;8.054;2023-12-04T09:56:55;7.03;;;2.45;;
35907;SDS011;22003;50.320;8.054;2023-12-04T09:59:22;7.07;;;2.47;;
35907;SDS011;22003;50.320;8.054;2023-12-04T10:01:50;2.22;;;2.03;;
35907;SDS011;22003;50.320;8.054;2023-12-04T10:04:16;1.08;;;1.00;;
35907;SDS011;22003;50.320;8.054;2023-12-04T10:06:41;0.77;;;0.55;;
35907;SDS011;22003;50.320;8.054;2023-12-04T10:09:09;2.95;;;1.77;;
35907;SDS011;22003;50.320;8.054;2023-12-04T10:11:39;1.90;;;1.40;;
35907;SDS011;22003;50.320;8.054;2023-12-04T10:14:05;0.98;;;0.85;;
35907;SDS011;22003;50.320;8.054;2023-12-04T10:16:39;12.52;;;1.92;;
35907;SDS011;22003;50.320;8.054;2023-12-04T10:21:41;1.00;;;1.00;;
35907;SDS011;22003;50.320;8.054;2023-12-04T10:24:06;1.20;;;1.15;;
35907;SDS011;22003;50.320;8.054;2023-12-04T10:26:32;2.75;;;2.53;;
35907;SDS011;22003;50.320;8.054;2023-12-04T10:29:01;6.88;;;2.35;;
35907;SDS011;22003;50.320;8.054;2023-12-04T10:31:31;0.95;;;0.95;;
35907;SDS011;22003;50.320;8.054;2023-12-04T10:33:58;4.88;;;2.33;;
35907;SDS011;22003;50.320;8.054;2023-12-04T10:36:23;0.60;;;0.57;;
35907;SDS011;22003;50.320;8.054;2023-12-04T10:38:58;1.27;;;1.17;;
35907;SDS011;22003;50.320;8.054;2023-12-04T10:41:25;4.97;;;1.77;;
35907;SDS011;22003;50.320;8.054;2023-12-04T10:43:50;1.92;;;1.40;;
35907;SDS011;22003;50.320;8.054;2023-12-04T10:46:15;1.13;;;0.63;;
35907;SDS011;22003;50.320;8.054;2023-12-04T10:48:41;0.45;;;0.45;;
35907;SDS011;22003;50.320;8.054;2023-12-04T10:51:09;5.60;;;2.92;;
35907;SDS011;22003;50.320;8.054;2023-12-04T10:53:36;2.70;;;1.48;;
35907;SDS011;22003;50.320;8.054;2023-12-04T10:56:01;2.58;;;0.95;;
35907;SDS011;22003;50.320;8.054;2023-12-04T10:58:27;1.98;;;1.88;;
35907;SDS011;22003;50.320;8.054;2023-12-04T11:00:53;2.28;;;1.85;;
35907;SDS011;22003;50.320;8.054;2023-12-04T11:03:25;2.78;;;2.55;;
35907;SDS011;22003;50.320;8.054;2023-12-04T11:05:58;5.47;;;2.50;;
35907;SDS011;22003;50.320;8.054;2023-12-04T11:08:25;1.70;;;1.60;;
35907;SDS011;22003;50.320;8.054;2023-12-04T11:10:58;0.88;;;0.88;;
35907;SDS011;22003;50.320;8.054;2023-12-04T11:13:28;0.60;;;0.60;;
35907;SDS011;22003;50.320;8.054;2023-12-04T11:15:56;0.20;;;0.20;;
35907;SDS011;22003;50.320;8.054;2023-12-04T11:18:28;1.48;;;1.10;;
35907;SDS011;22003;50.320;8.054;2023-12-04T11:20:59;3.05;;;1.60;;
35907;SDS011;22003;50.320;8.054;2023-12-04T11:23:31;2.08;;;1.17;;
35907;SDS011;22003;50.320;8.054;2023-12-04T11:25:58;6.32;;;0.93;;
35907;SDS011;22003;50.320;8.054;2023-12-04T11:28:25;2.15;;;1.95;;
35907;SDS011;22003;50.320;8.054;2023-12-04T11:30:52;0.60;;;0.60;;
35907;SDS011;22003;50.320;8.054;2023-12-04T11:33:18;1.52;;;1.15;;
35907;SDS011;22003;50.320;8.054;2023-12-04T11:35:44;0.25;;;0.25;;
35907;SDS011;22003;50.320;8.054;2023-12-04T11:38:12;2.03;;;1.02;;
35907;SDS011;22003;50.320;8.054;2023-12-04T11:40:40;1.60;;;1.50;;
35907;SDS011;22003;50.320;8.054;2023-12-04T11:43:26;0.30;;;0.22;;
35907;SDS011;22003;50.320;8.054;2023-12-04T11:45:52;0.98;;;0.45;;
35907;SDS011;22003;50.320;8.054;2023-12-04T11:48:24;3.75;;;0.80;;
35907;SDS011;22003;50.320;8.054;2023-12-04T11:50:50;3.30;;;1.50;;
35907;SDS011;22003;50.320;8.054;2023-12-04T11:53:16;0.88;;;0.88;;
35907;SDS011;22003;50.320;8.054;2023-12-04T11:55:41;10.60;;;1.60;;
35907;SDS011;22003;50.320;8.054;2023-12-04T11:58:10;1.45;;;0.77;;
35907;SDS011;22003;50.320;8.054;2023-12-04T12:00:37;2.78;;;1.10;;
35907;SDS011;22003;50.320;8.054;2023-12-04T12:03:06;0.80;;;0.80;;
35907;SDS011;22003;50.320;8.054;2023-12-04T12:05:34;1.70;;;0.82;;
35907;SDS011;22003;50.320;8.054;2023-12-04T12:08:01;5.07;;;0.73;;
35907;SDS011;22003;50.320;8.054;2023-12-04T12:10:30;6.35;;;2.40;;
35907;SDS011;22003;50.320;8.054;2023-12-04T12:12:55;4.93;;;2.13;;
35907;SDS011;22003;50.320;8.054;2023-12-04T12:15:21;0.52;;;0.52;;
35907;SDS011;22003;50.320;8.054;2023-12-04T12:17:47;0.13;;;0.13;;
35907;SDS011;22003;50.320;8.054;2023-12-04T12:20:14;1.97;;;0.50;;
35907;SDS011;22003;50.320;8.054;2023-12-04T12:22:40;1.50;;;0.93;;
35907;SDS011;22003;50.320;8.054;2023-12-04T12:25:08;5.28;;;1.52;;
35907;SDS011;22003;50.320;8.054;2023-12-04T12:27:35;0.20;;;0.20;;
35907;SDS011;22003;50.320;8.054;2023-12-04T12:30:00;7.28;;;1.85;;
35907;SDS011;22003;50.320;8.054;2023-12-04T12:32:26;0.20;;;0.20;;
35907;SDS011;22003;50.320;8.054;2023-12-04T12:34:52;0.57;;;0.57;;
35907;SDS011;22003;50.320;8.054;2023-12-04T12:37:18;3.03;;;1.45;;
35907;SDS011;22003;50.320;8.054;2023-12-04T12:39:43;9.60;;;1.08;;
35907;SDS011;22003;50.320;8.054;2023-12-04T12:42:09;1.67;;;1.58;;
35907;SDS011;22003;50.320;8.054;2023-12-04T12:44:40;2.28;;;2.17;;
35907;SDS011;22003;50.320;8.054;2023-12-04T12:47:06;0.70;;;0.57;;
35907;SDS011;22003;50.320;8.054;2023-12-04T12:49:32;0.88;;;0.88;;
35907;SDS011;22003;50.320;8.054;2023-12-04T12:51:59;0.85;;;0.57;;
35907;SDS011;22003;50.320;8.054;2023-12-04T12:54:25;1.55;;;1.05;;
35907;SDS011;22003;50.320;8.054;2023-12-04T12:56:50;1.52;;;1.02;;
35907;SDS011;22003;50.320;8.054;2023-12-04T12:59:15;1.98;;;0.73;;
35907;SDS011;22003;50.320;8.054;2023-12-04T13:01:41;1.13;;;1.05;;
35907;SDS011;22003;50.320;8.054;2023-12-04T13:04:06;0.20;;;0.20;;
35907;SDS011;22003;50.320;8.054;2023-12-04T13:06:32;0.57;;;0.57;;
35907;SDS011;22003;50.320;8.054;2023-12-04T13:08:57;2.25;;;1.08;;
35907;SDS011;22003;50.320;8.054;2023-12-04T13:11:22;2.60;;;1.55;;
35907;SDS011;22003;50.320;8.054;2023-12-04T13:13:48;0.15;;;0.15;;
35907;SDS011;22003;50.320;8.054;2023-12-04T13:16:13;1.00;;;0.73;;
35907;SDS011;22003;50.320;8.054;2023-12-04T13:18:38;0.88;;;0.77;;
35907;SDS011;22003;50.320;8.054;2023-12-04T13:21:04;0.90;;;0.40;;
35907;SDS011;22003;50.320;8.054;2023-12-04T13:23:29;1.10;;;1.00;;
35907;SDS011;22003;50.320;8.054;2023-12-04T13:25:55;1.23;;;1.15;;
35907;SDS011;22003;50.320;8.054;2023-12-04T13:28:20;0.95;;;0.95;;
35907;SDS011;22003;50.320;8.054;2023-12-04T13:30:46;5.53;;;1.27;;
35907;SDS011;22003;50.320;8.054;2023-12-04T13:33:11;1.52;;;1.42;;
35907;SDS011;22003;50.320;8.054;2023-12-04T13:35:36;1.45;;;0.98;;
35907;SDS011;22003;50.320;8.054;2023-12-04T13:38:02;1.50;;;0.63;;
35907;SDS011;22003;50.320;8.054;2023-12-04T13:40:27;0.38;;;0.20;;
35907;SDS011;22003;50.320;8.054;2023-12-04T13:42:57;1.48;;;1.38;;
35907;SDS011;22003;50.320;8.054;2023-12-04T13:45:40;6.80;;;2.33;;
35907;SDS011;22003;50.320;8.054;2023-12-04T13:48:05;1.17;;;1.08;;
35907;SDS011;22003;50.320;8.054;2023-12-04T13:50:31;1.02;;;0.93;;
35907;SDS011;22003;50.320;8.054;2023-12-04T13:52:56;2.42;;;1.58;;
35907;SDS011;22003;50.320;8.054;2023-12-04T13:55:25;2.42;;;2.22;;
35907;SDS011;22003;50.320;8.054;2023-12-04T13:58:26;0.40;;;0.40;;
35907;SDS011;22003;50.320;8.054;2023-12-04T14:01:07;1.38;;;1.20;;
35907;SDS011;22003;50.320;8.054;2023-12-04T14:03:39;0.88;;;0.88;;
35907;SDS011;22003;50.320;8.054;2023-12-04T14:06:08;4.82;;;1.80;;
35907;SDS011;22003;50.320;8.054;2023-12-04T14:08:34;2.08;;;1.75;;
35907;SDS011;22003;50.320;8.054;2023-12-04T14:10:59;1.23;;;1.15;;
35907;SDS011;22003;50.320;8.054;2023-12-04T14:13:24;0.50;;;0.40;;
35907;SDS011;22003;50.320;8.054;2023-12-04T14:15:50;4.15;;;1.50;;
35907;SDS011;22003;50.320;8.054;2023-12-04T14:18:15;0.30;;;0.30;;
35907;SDS011;22003;50.320;8.054;2023-12-04T14:20:40;2.00;;;1.30;;
35907;SDS011;22003;50.320;8.054;2023-12-04T14:23:06;3.10;;;2.38;;
35907;SDS011;22003;50.320;8.054;2023-12-04T14:25:31;0.73;;;0.73;;
35907;SDS011;22003;50.320;8.054;2023-12-04T14:27:56;0.40;;;0.40;;
35907;SDS011;22003;50.320;8.054;2023-12-04T14:30:21;4.32;;;1.42;;
35907;SDS011;22003;50.320;8.054;2023-12-04T14:32:47;0.57;;;0.57;;